Time;durP1;ratioP1;P1;durP2;ratioP2;P2;SDS_P1;SDS_P2;PMS_P1;PMS_P2;Temp;Humidity;BMP_temperature;BMP_pressure;BME280_temperature;BME280_humidity;BME280_pressure;Samples;Min_cycle;Max_cycle;Signal;HPM_P1;HPM_P2
2024/01/02 00:00:18;;;;;;;0.30;0.20;;;;;;;7.06;100.00;99950.69;5098754;27;97327;-27
2024/01/02 00:02:43;;;;;;;3.85;0.60;;;;;;;7.06;100.00;99931.81;5098696;27;96687;-28
2024/01/02 00:05:09;;;;;;;3.40;0.60;;;;;;;7.12;100.00;99947.59;5098949;27;96728;-27
2024/01/02 00:07:34;;;;;;;0.57;0.40;;;;;;;7.12;100.00;99919.81;5098148;27;97303;-27
2024/01/02 00:10:00;;;;;;;2.03;0.47;;;;;;;7.13;100.00;99919.72;5098252;27;99174;-28
2024/01/02 00:12:26;;;;;;;0.05;0.05;;;;;;;7.12;100.00;99898.25;5080056;27;96579;-27
2024/01/02 00:14:52;;;;;;;0.17;0.17;;;;;;;7.05;100.00;99870.84;5080081;27;96825;-28
2024/01/02 00:17:18;;;;;;;1.58;0.60;;;;;;;7.11;100.00;99870.47;5079378;27;101327;-27
2024/01/02 00:19:43;;;;;;;0.68;0.35;;;;;;;7.17;100.00;99851.22;5098150;27;99745;-27
2024/01/02 00:22:08;;;;;;;0.75;0.38;;;;;;;7.11;100.00;99830.06;5098560;27;96487;-28
2024/01/02 00:24:34;;;;;;;0.55;0.50;;;;;;;7.16;100.00;99827.94;5099074;27;96718;-27
2024/01/02 00:26:59;;;;;;;2.15;0.40;;;;;;;7.16;100.00;99817.19;5098489;27;97504;-27
2024/01/02 00:29:24;;;;;;;1.20;0.30;;;;;;;7.18;100.00;99823.34;5098139;27;99143;-27
2024/01/02 00:31:50;;;;;;;0.20;0.13;;;;;;;7.19;100.00;99814.28;5098011;27;96761;-28
2024/01/02 00:34:15;;;;;;;0.17;0.17;;;;;;;7.16;100.00;99798.31;5098561;27;96811;-28
2024/01/02 00:36:41;;;;;;;0.08;0.00;;;;;;;7.20;100.00;99805.25;5097995;27;97172;-28
2024/01/02 00:39:06;;;;;;;0.15;0.15;;;;;;;7.21;100.00;99787.25;5097998;27;97090;-29
2024/01/02 00:41:32;;;;;;;0.32;0.20;;;;;;;7.21;100.00;99780.03;5097868;27;96869;-27
2024/01/02 00:43:58;;;;;;;0.98;0.28;;;;;;;7.23;100.00;99774.56;5079605;27;96819;-27
2024/01/02 00:46:23;;;;;;;0.45;0.28;;;;;;;7.21;100.00;99757.63;5097430;27;99296;-27
2024/01/02 00:48:49;;;;;;;1.38;0.13;;;;;;;7.23;100.00;99756.56;5098211;27;97332;-28
2024/01/02 00:51:14;;;;;;;0.00;0.00;;;;;;;7.28;100.00;99748.19;5097746;27;97033;-27
2024/01/02 00:53:39;;;;;;;0.08;0.05;;;;;;;7.29;100.00;99738.28;5098121;27;96816;-27
2024/01/02 00:56:06;;;;;;;0.20;0.10;;;;;;;7.27;100.00;99716.84;5097093;27;99412;-27
2024/01/02 00:58:31;;;;;;;0.15;0.08;;;;;;;7.27;100.00;99707.88;5078264;27;101122;-28
2024/01/02 01:00:56;;;;;;;0.00;0.00;;;;;;;7.27;100.00;99686.34;5097602;27;96744;-28
2024/01/02 01:03:21;;;;;;;0.38;0.10;;;;;;;7.28;100.00;99694.31;5098073;27;96839;-28
2024/01/02 01:05:47;;;;;;;8.63;0.47;;;;;;;7.28;100.00;99688.06;5097815;27;97280;-28
2024/01/02 01:08:12;;;;;;;0.00;0.00;;;;;;;7.32;100.00;99687.78;5097373;27;99570;-28
2024/01/02 01:10:38;;;;;;;0.20;0.10;;;;;;;7.31;100.00;99655.53;5097940;27;96476;-28
2024/01/02 01:13:03;;;;;;;4.68;0.13;;;;;;;7.28;100.00;99645.84;5098000;27;96735;-27
2024/01/02 01:15:28;;;;;;;0.15;0.15;;;;;;;7.29;100.00;99644.00;5096865;27;99372;-27
2024/01/02 01:17:54;;;;;;;1.23;0.40;;;;;;;7.32;100.00;99636.59;5097490;27;97856;-28
2024/01/02 01:20:19;;;;;;;0.00;0.00;;;;;;;7.25;100.00;99600.28;5097357;27;96450;-27
2024/01/02 01:22:44;;;;;;;0.00;0.00;;;;;;;7.34;100.00;99609.53;5097681;27;96724;-28
2024/01/02 01:25:10;;;;;;;0.20;0.20;;;;;;;7.29;100.00;99588.28;5097024;27;99326;-27
2024/01/02 01:27:35;;;;;;;0.30;0.20;;;;;;;7.31;100.00;99570.22;5097066;27;99055;-27
2024/01/02 01:30:01;;;;;;;0.10;0.10;;;;;;;7.36;100.00;99573.44;5097273;27;96714;-28
2024/01/02 01:32:28;;;;;;;0.10;0.10;;;;;;;7.37;100.00;99560.88;5097718;27;96789;-27
2024/01/02 01:34:53;;;;;;;0.10;0.05;;;;;;;7.37;100.00;99558.16;5078389;27;101442;-28
2024/01/02 01:37:19;;;;;;;0.35;0.30;;;;;;;7.36;100.00;99537.56;5097511;27;96717;-27
2024/01/02 01:39:44;;;;;;;0.50;0.20;;;;;;;7.36;100.00;99535.72;5097041;27;96651;-27
2024/01/02 01:42:10;;;;;;;0.40;0.30;;;;;;;7.38;100.00;99512.25;5097205;27;96925;-28
2024/01/02 01:44:35;;;;;;;1.15;0.10;;;;;;;7.43;100.00;99522.69;5096347;27;97367;-27
2024/01/02 01:47:02;;;;;;;0.10;0.10;;;;;;;7.43;100.00;99499.31;5097030;27;97938;-28
2024/01/02 01:49:28;;;;;;;0.20;0.17;;;;;;;7.45;100.00;99510.00;5078430;27;96501;-27
2024/01/02 01:51:55;;;;;;;0.00;0.00;;;;;;;7.48;100.00;99499.00;5096825;27;96822;-27
2024/01/02 01:54:22;;;;;;;0.38;0.20;;;;;;;7.48;100.00;99488.22;5077972;27;99215;-27
2024/01/02 01:56:47;;;;;;;0.55;0.17;;;;;;;7.51;100.00;99474.53;5078059;27;101362;-28
2024/01/02 01:59:13;;;;;;;0.30;0.20;;;;;;;7.48;100.00;99468.50;5096546;27;96755;-27
2024/01/02 02:01:39;;;;;;;0.00;0.00;;;;;;;7.53;100.00;99463.63;5097581;27;96715;-28
2024/01/02 02:04:05;;;;;;;0.25;0.05;;;;;;;7.50;100.00;99450.41;5077164;27;100853;-28
2024/01/02 02:06:31;;;;;;;0.03;0.03;;;;;;;7.55;100.00;99442.84;5060794;27;100809;-27
2024/01/02 02:08:57;;;;;;;0.03;0.03;;;;;;;7.52;100.00;99430.44;5096265;27;96583;-27
2024/01/02 02:11:22;;;;;;;0.20;0.10;;;;;;;7.53;100.00;99424.09;5078217;27;96844;-27
2024/01/02 02:13:48;;;;;;;0.10;0.03;;;;;;;7.51;100.00;99434.13;5077570;27;100636;-27
2024/01/02 02:16:14;;;;;;;0.30;0.10;;;;;;;7.52;100.00;99408.03;5077578;27;100856;-27
2024/01/02 02:18:40;;;;;;;0.03;0.03;;;;;;;7.54;100.00;99411.50;5096883;27;96493;-27
2024/01/02 02:21:05;;;;;;;0.22;0.10;;;;;;;7.59;100.00;99396.69;5096750;27;96733;-27
2024/01/02 02:23:30;;;;;;;0.47;0.10;;;;;;;7.59;100.00;99388.63;5096281;27;99109;-27
2024/01/02 02:25:56;;;;;;;0.00;0.00;;;;;;;7.57;100.00;99363.63;5096523;27;105044;-28
2024/01/02 02:28:21;;;;;;;0.52;0.32;;;;;;;7.58;100.00;99370.75;5096276;27;96595;-27
2024/01/02 02:30:46;;;;;;;0.40;0.05;;;;;;;7.55;100.00;99352.09;5096618;27;96719;-28
2024/01/02 02:33:12;;;;;;;0.25;0.10;;;;;;;7.60;100.00;99344.56;5095591;27;98853;-27
2024/01/02 02:35:37;;;;;;;0.00;0.00;;;;;;;7.56;100.00;99318.78;5096233;27;97272;-28
2024/01/02 02:38:03;;;;;;;0.17;0.17;;;;;;;7.57;100.00;99328.59;5096151;27;96439;-27
2024/01/02 02:40:28;;;;;;;0.32;0.17;;;;;;;7.57;100.00;99328.59;5096225;27;96708;-28
2024/01/02 02:42:53;;;;;;;0.00;0.00;;;;;;;7.54;100.00;99323.44;5096175;27;98011;-28
2024/01/02 02:45:19;;;;;;;0.10;0.00;;;;;;;7.58;100.00;99305.19;5095711;27;99727;-27
2024/01/02 02:47:44;;;;;;;0.08;0.08;;;;;;;7.59;100.00;99293.47;5096490;27;96551;-28
2024/01/02 02:50:10;;;;;;;0.47;0.22;;;;;;;7.59;100.00;99298.84;5096818;27;96741;-28
2024/01/02 02:52:35;;;;;;;0.20;0.20;;;;;;;7.58;100.00;99284.53;5095366;27;99379;-27
2024/01/02 02:55:00;;;;;;;0.00;0.00;;;;;;;7.57;100.00;99279.25;5095766;27;99151;-28
2024/01/02 02:57:26;;;;;;;0.00;0.00;;;;;;;7.57;100.00;99274.69;5095467;27;96444;-28
2024/01/02 02:59:51;;;;;;;0.00;0.00;;;;;;;7.66;100.00;99289.34;5095465;27;96781;-28
2024/01/02 03:02:17;;;;;;;0.00;0.00;;;;;;;7.64;100.00;99265.19;5095921;27;97330;-28
2024/01/02 03:04:43;;;;;;;0.00;0.00;;;;;;;7.64;100.00;99259.78;5095815;27;97871;-29
2024/01/02 03:07:09;;;;;;;0.20;0.05;;;;;;;7.65;100.00;99252.56;5095991;27;96491;-28
2024/01/02 03:09:35;;;;;;;0.00;0.00;;;;;;;7.68;100.00;99241.56;5077483;27;96876;-29
2024/01/02 03:12:00;;;;;;;0.00;0.00;;;;;;;7.69;100.00;99253.22;5095881;27;98033;-27
2024/01/02 03:14:26;;;;;;;0.00;0.00;;;;;;;7.72;100.00;99252.97;5095650;27;99281;-27
2024/01/02 03:16:51;;;;;;;0.00;0.00;;;;;;;7.66;100.00;99214.72;5098139;27;96452;-29
2024/01/02 03:19:16;;;;;;;0.10;0.10;;;;;;;7.76;100.00;99231.06;5099334;27;96824;-27
2024/01/02 03:21:42;;;;;;;0.00;0.00;;;;;;;7.77;100.00;99216.63;5098850;27;97423;-28
2024/01/02 03:24:07;;;;;;;0.22;0.10;;;;;;;7.80;100.00;99216.38;5099106;27;103153;-28
2024/01/02 03:26:33;;;;;;;0.00;0.00;;;;;;;7.85;100.00;99213.34;5099236;27;96495;-27
2024/01/02 03:28:58;;;;;;;0.10;0.10;;;;;;;7.88;100.00;99207.69;5098978;27;96871;-29
2024/01/02 03:31:24;;;;;;;0.00;0.00;;;;;;;7.94;100.00;99198.28;5098926;27;98788;-27
2024/01/02 03:33:49;;;;;;;0.00;0.00;;;;;;;7.98;100.00;99202.44;5098961;27;105551;-27
2024/01/02 03:36:18;;;;;;;0.05;0.00;;;;;;;8.04;100.00;99202.00;5099366;27;96567;-27
2024/01/02 03:38:48;;;;;;;0.32;0.20;;;;;;;8.04;100.00;99207.38;5099462;27;96803;-27
2024/01/02 03:41:14;;;;;;;0.20;0.10;;;;;;;8.14;100.00;99197.59;5080036;27;98847;-27
2024/01/02 03:43:40;;;;;;;0.00;0.00;;;;;;;8.17;100.00;99201.88;5098674;27;97808;-28
2024/01/02 03:46:05;;;;;;;0.00;0.00;;;;;;;8.17;100.00;99188.41;5080128;27;96652;-28
2024/01/02 03:48:31;;;;;;;0.05;0.05;;;;;;;8.21;100.00;99198.81;5098796;27;96757;-28
2024/01/02 03:50:56;;;;;;;0.00;0.00;;;;;;;8.25;100.00;99194.06;5098400;27;99532;-27
2024/01/02 03:53:21;;;;;;;0.10;0.10;;;;;;;8.28;100.00;99177.63;5098813;27;97809;-27
2024/01/02 03:55:47;;;;;;;0.10;0.10;;;;;;;8.36;100.00;99177.00;5098795;27;96494;-27
2024/01/02 03:58:12;;;;;;;0.20;0.10;;;;;;;8.40;100.00;99171.28;5098474;27;96702;-27
2024/01/02 04:00:38;;;;;;;0.40;0.10;;;;;;;8.45;100.00;99160.97;5079868;27;101090;-29
2024/01/02 04:03:03;;;;;;;0.20;0.10;;;;;;;8.52;100.00;99164.06;5098556;27;99407;-27
2024/01/02 04:05:29;;;;;;;0.00;0.00;;;;;;;8.56;100.00;99148.50;5098579;27;96569;-27
2024/01/02 04:07:54;;;;;;;0.00;0.00;;;;;;;8.58;100.00;99162.69;5080197;27;96831;-27
2024/01/02 04:10:20;;;;;;;0.10;0.00;;;;;;;8.61;100.00;99147.13;5098012;27;97323;-28
2024/01/02 04:12:45;;;;;;;0.00;0.00;;;;;;;8.72;100.00;99165.13;5098345;27;97890;-27
2024/01/02 04:15:10;;;;;;;0.00;0.00;;;;;;;8.77;100.00;99171.03;5098694;27;96435;-27
2024/01/02 04:17:36;;;;;;;0.10;0.10;;;;;;;8.82;100.00;99178.75;5098612;27;96775;-27
2024/01/02 04:20:01;;;;;;;0.00;0.00;;;;;;;8.82;100.00;99170.63;5098416;27;97525;-29
2024/01/02 04:22:26;;;;;;;0.28;0.10;;;;;;;8.85;100.00;99160.47;5098207;27;97947;-27
2024/01/02 04:24:52;;;;;;;0.00;0.00;;;;;;;8.85;100.00;99152.38;5098861;27;96556;-27
2024/01/02 04:27:17;;;;;;;0.10;0.00;;;;;;;8.89;100.00;99145.75;5098188;27;97007;-27
2024/01/02 04:29:42;;;;;;;0.30;0.20;;;;;;;8.91;100.00;99159.97;5097803;27;98903;-27
2024/01/02 04:32:08;;;;;;;0.00;0.00;;;;;;;8.98;100.00;99164.84;5098279;27;97304;-27
2024/01/02 04:34:33;;;;;;;0.10;0.10;;;;;;;8.97;100.00;99152.34;5097972;27;96799;-27
2024/01/02 04:36:58;;;;;;;0.00;0.00;;;;;;;9.03;100.00;99154.53;5098270;27;96801;-27
2024/01/02 04:39:24;;;;;;;0.10;0.10;;;;;;;9.03;100.00;99162.63;5098148;27;97370;-28
2024/01/02 04:41:49;;;;;;;0.00;0.00;;;;;;;9.07;100.00;99162.25;5097953;27;97391;-27
2024/01/02 04:44:14;;;;;;;0.03;0.03;;;;;;;9.06;100.00;99165.09;5098040;27;96525;-27
2024/01/02 04:46:40;;;;;;;0.00;0.00;;;;;;;9.17;100.00;99166.91;5098044;27;96773;-27
2024/01/02 04:49:05;;;;;;;0.00;0.00;;;;;;;9.22;100.00;99167.38;5097947;27;97366;-27
2024/01/02 04:51:31;;;;;;;0.00;0.00;;;;;;;9.23;100.00;99179.91;5097785;27;99218;-27
2024/01/02 04:53:57;;;;;;;0.00;0.00;;;;;;;9.20;100.00;99156.72;5098009;27;96607;-27
2024/01/02 04:56:23;;;;;;;0.00;0.00;;;;;;;9.24;100.00;99160.00;5097708;27;96790;-27
2024/01/02 04:58:48;;;;;;;0.10;0.10;;;;;;;9.26;100.00;99166.13;5096807;27;99152;-27
2024/01/02 05:01:14;;;;;;;0.20;0.10;;;;;;;9.26;100.00;99158.88;5079068;27;100718;-28
2024/01/02 05:03:39;;;;;;;2.90;0.30;;;;;;;9.33;100.00;99175.44;5097926;27;96578;-29
2024/01/02 05:06:04;;;;;;;0.05;0.05;;;;;;;9.38;100.00;99185.88;5098134;27;96718;-28
2024/01/02 05:08:30;;;;;;;0.00;0.00;;;;;;;9.40;100.00;99171.25;5097654;27;97669;-27
2024/01/02 05:10:55;;;;;;;0.32;0.15;;;;;;;9.39;100.00;99174.06;5097422;27;97344;-27
2024/01/02 05:13:20;;;;;;;9.18;0.45;;;;;;;9.43;100.00;99175.53;5097433;27;96485;-27
2024/01/02 05:15:46;;;;;;;1.30;0.10;;;;;;;9.51;100.00;99167.63;5098195;27;96731;-27
2024/01/02 05:18:11;;;;;;;0.13;0.13;;;;;;;9.55;100.00;99177.19;5097443;27;97902;-27
2024/01/02 05:20:37;;;;;;;0.47;0.43;;;;;;;9.52;100.00;99169.34;5097391;27;97914;-27
2024/01/02 05:23:03;;;;;;;4.50;0.57;;;;;;;9.65;100.00;99183.53;5097268;27;96475;-27
2024/01/02 05:25:32;;;;;;;2.67;0.70;;;;;;;9.75;100.00;99183.66;5078786;27;96668;-27
2024/01/02 05:27:57;;;;;;;2.20;0.38;;;;;;;9.79;100.00;99180.53;5097119;27;100319;-27
2024/01/02 05:30:23;;;;;;;2.45;0.30;;;;;;;9.88;100.00;99200.53;5097089;27;97267;-29
2024/01/02 05:32:49;;;;;;;2.63;0.25;;;;;;;9.93;100.00;99194.72;5097173;27;96591;-28
2024/01/02 05:35:14;;;;;;;0.52;0.30;;;;;;;9.99;100.00;99205.88;5097545;27;96766;-27
2024/01/02 05:37:39;;;;;;;1.95;0.50;;;;;;;10.11;100.00;99214.78;5096733;27;99237;-27
2024/01/02 05:40:05;;;;;;;1.65;0.32;;;;;;;10.12;100.00;99210.22;5096472;27;97019;-27
2024/01/02 05:42:31;;;;;;;0.25;0.10;;;;;;;10.18;100.00;99213.28;5078594;27;96555;-27
2024/01/02 05:44:56;;;;;;;1.67;0.43;;;;;;;10.19;100.00;99225.78;5097404;27;96791;-28
2024/01/02 05:47:21;;;;;;;5.05;0.70;;;;;;;10.24;100.00;99211.03;5096376;27;97480;-27
2024/01/02 05:49:47;;;;;;;3.55;0.45;;;;;;;10.29;100.00;99216.91;5097051;27;97874;-27
2024/01/02 05:52:12;;;;;;;1.20;0.57;;;;;;;10.34;100.00;99237.16;5096837;27;96561;-27
2024/01/02 05:54:37;;;;;;;0.93;0.45;;;;;;;10.32;100.00;99232.88;5096797;27;96883;-27
2024/01/02 05:57:03;;;;;;;3.53;0.50;;;;;;;10.41;100.00;99235.66;5096514;27;99261;-28
2024/01/02 05:59:28;;;;;;;0.93;0.50;;;;;;;10.40;100.00;99228.53;5096475;27;97828;-27
2024/01/02 06:01:54;;;;;;;0.38;0.17;;;;;;;10.46;100.00;99248.78;5096982;27;96580;-28
2024/01/02 06:04:19;;;;;;;2.58;0.35;;;;;;;10.41;100.00;99230.22;5097529;27;96766;-27
2024/01/02 06:06:44;;;;;;;0.63;0.43;;;;;;;10.45;100.00;99249.78;5096808;27;98027;-27
2024/01/02 06:09:10;;;;;;;1.92;0.50;;;;;;;10.44;100.00;99248.09;5096424;27;99099;-27
2024/01/02 06:11:35;;;;;;;1.27;0.60;;;;;;;10.42;100.00;99250.06;5096539;27;96619;-27
2024/01/02 06:14:01;;;;;;;3.13;1.00;;;;;;;10.44;100.00;99258.03;5096867;27;96775;-28
2024/01/02 06:16:27;;;;;;;0.35;0.28;;;;;;;10.40;100.00;99243.91;5096352;27;98010;-29
2024/01/02 06:18:52;;;;;;;13.13;0.93;;;;;;;10.45;100.00;99252.50;5096238;27;99215;-27
2024/01/02 06:21:18;;;;;;;3.55;0.28;;;;;;;10.52;100.00;99274.47;5096762;27;96473;-27
2024/01/02 06:23:43;;;;;;;3.92;1.40;;;;;;;10.52;100.00;99269.91;5097038;27;96848;-28
2024/01/02 06:26:08;;;;;;;4.72;0.80;;;;;;;10.49;100.00;99272.91;5096207;27;97471;-28
2024/01/02 06:28:34;;;;;;;4.43;0.70;;;;;;;10.52;100.00;99278.03;5096671;27;97299;-27
2024/01/02 06:31:05;;;;;;;1.80;0.43;;;;;;;10.53;100.00;99284.31;5096895;27;96488;-28
2024/01/02 06:33:30;;;;;;;1.27;0.47;;;;;;;10.53;100.00;99279.75;5078050;27;96804;-27
2024/01/02 06:35:56;;;;;;;0.70;0.38;;;;;;;10.50;100.00;99280.03;5076998;27;100897;-28
2024/01/02 06:38:21;;;;;;;5.50;0.68;;;;;;;10.50;100.00;99273.75;5096182;27;97250;-27
2024/01/02 06:40:46;;;;;;;6.25;0.85;;;;;;;10.52;100.00;99288.88;5096297;27;96424;-27
2024/01/02 06:43:12;;;;;;;2.47;0.68;;;;;;;10.52;100.00;99293.44;5096550;27;96782;-27
2024/01/02 06:45:37;;;;;;;3.53;0.52;;;;;;;10.52;100.00;99293.44;5096073;27;98446;-27
2024/01/02 06:48:03;;;;;;;3.38;1.08;;;;;;;10.55;100.00;99294.00;5096062;27;97816;-27
2024/01/02 06:50:28;;;;;;;4.95;1.13;;;;;;;10.54;100.00;99286.88;5095867;27;96447;-28
2024/01/02 06:52:53;;;;;;;2.17;0.82;;;;;;;10.55;100.00;99304.00;5096552;27;96991;-28
2024/01/02 06:55:19;;;;;;;5.53;0.52;;;;;;;10.55;100.00;99304.00;5095656;27;99201;-27
2024/01/02 06:57:44;;;;;;;3.97;0.52;;;;;;;10.54;100.00;99305.84;5095594;27;99247;-27
2024/01/02 07:00:10;;;;;;;4.10;1.02;;;;;;;10.54;100.00;99307.69;5076982;27;96588;-27
2024/01/02 07:02:36;;;;;;;5.82;0.77;;;;;;;10.57;100.00;99316.41;5096106;27;96858;-27
2024/01/02 07:05:03;;;;;;;6.65;0.88;;;;;;;10.58;100.00;99311.84;5095934;27;97980;-27
2024/01/02 07:07:28;;;;;;;2.85;0.63;;;;;;;10.58;100.00;99331.66;5076989;27;101138;-27
2024/01/02 07:09:54;;;;;;;2.70;0.65;;;;;;;10.57;100.00;99313.69;5096027;27;96809;-27
2024/01/02 07:12:19;;;;;;;5.68;0.65;;;;;;;10.58;100.00;99328.09;5095773;27;96697;-27
2024/01/02 07:14:44;;;;;;;3.78;0.70;;;;;;;10.58;100.00;99325.38;5095635;27;99407;-28
2024/01/02 07:17:10;;;;;;;3.25;0.55;;;;;;;10.57;100.00;99323.66;5095682;27;99365;-27
2024/01/02 07:19:36;;;;;;;5.68;0.60;;;;;;;10.58;100.00;99336.19;5095647;27;96458;-27
2024/01/02 07:22:01;;;;;;;2.95;0.63;;;;;;;10.61;100.00;99350.34;5095648;27;96851;-28
2024/01/02 07:24:26;;;;;;;2.85;0.77;;;;;;;10.61;100.00;99339.53;5094742;27;99370;-27
2024/01/02 07:26:52;;;;;;;2.03;0.75;;;;;;;10.65;100.00;99353.63;5095528;27;97803;-27
2024/01/02 07:29:17;;;;;;;2.45;0.80;;;;;;;10.63;100.00;99342.97;5095936;27;96434;-28
2024/01/02 07:31:42;;;;;;;6.35;1.00;;;;;;;10.63;100.00;99358.34;5096136;27;96950;-27
2024/01/02 07:34:08;;;;;;;2.42;0.88;;;;;;;10.66;100.00;99371.63;5095389;27;97353;-27
2024/01/02 07:36:33;;;;;;;2.33;0.57;;;;;;;10.63;100.00;99355.66;5095414;27;97738;-27
2024/01/02 07:38:58;;;;;;;2.88;0.65;;;;;;;10.67;100.00;99358.94;5095723;27;96825;-30
2024/01/02 07:41:24;;;;;;;1.60;0.57;;;;;;;10.65;100.00;99355.50;5095876;27;96821;-28
2024/01/02 07:43:49;;;;;;;5.38;0.65;;;;;;;10.60;100.00;99350.47;5095621;27;97328;-27
2024/01/02 07:46:16;;;;;;;3.03;0.80;;;;;;;10.63;100.00;99361.06;5095063;27;99397;-28
2024/01/02 07:48:41;;;;;;;4.13;0.57;;;;;;;10.65;100.00;99358.19;5076547;27;96673;-27
2024/01/02 07:51:07;;;;;;;3.60;0.57;;;;;;;10.65;100.00;99360.91;5095013;27;96818;-28
2024/01/02 07:53:32;;;;;;;3.45;0.73;;;;;;;10.61;100.00;99347.66;5094764;27;99546;-28
2024/01/02 07:55:58;;;;;;;2.35;0.63;;;;;;;10.65;100.00;99352.78;5095060;27;99146;-27
2024/01/02 07:58:23;;;;;;;5.47;0.70;;;;;;;10.63;100.00;99361.91;5095037;27;96853;-28
2024/01/02 08:00:49;;;;;;;4.65;0.65;;;;;;;10.63;100.00;99348.38;5076767;27;96732;-28
2024/01/02 08:03:14;;;;;;;2.83;0.85;;;;;;;10.68;100.00;99366.94;5097628;27;97891;-28
2024/01/02 08:05:40;;;;;;;8.27;1.13;;;;;;;10.65;100.00;99359.06;5098713;27;99094;-27
2024/01/02 08:08:06;;;;;;;1.83;0.65;;;;;;;10.68;100.00;99341.69;5079868;27;96556;-27
2024/01/02 08:10:32;;;;;;;4.07;1.13;;;;;;;10.70;100.00;99337.88;5098720;27;96837;-27
2024/01/02 08:12:58;;;;;;;1.92;0.73;;;;;;;10.73;100.00;99328.63;5062177;27;100832;-27
2024/01/02 08:15:24;;;;;;;4.60;0.88;;;;;;;10.72;100.00;99326.91;5098296;27;99510;-29
2024/01/02 08:17:50;;;;;;;1.17;0.40;;;;;;;10.73;100.00;99320.50;5079912;27;96693;-27
2024/01/02 08:20:15;;;;;;;2.03;0.43;;;;;;;10.70;100.00;99318.03;5098749;27;96911;-28
2024/01/02 08:22:41;;;;;;;7.60;0.77;;;;;;;10.73;100.00;99329.47;5098108;27;97953;-27
2024/01/02 08:25:08;;;;;;;9.93;0.90;;;;;;;10.72;100.00;99326.91;5098311;27;97295;-27
2024/01/02 08:27:34;;;;;;;2.35;0.40;;;;;;;10.73;100.00;99325.91;5079901;27;96910;-27
2024/01/02 08:30:00;;;;;;;1.58;0.55;;;;;;;10.74;100.00;99320.34;5080166;27;96821;-28
2024/01/02 08:32:25;;;;;;;7.88;1.02;;;;;;;10.75;100.00;99321.19;5098047;27;99321;-27
2024/01/02 08:34:50;;;;;;;5.55;0.73;;;;;;;10.73;100.00;99323.22;5098045;27;97342;-27
2024/01/02 08:37:16;;;;;;;4.93;0.68;;;;;;;10.70;100.00;99323.47;5097760;27;96549;-28
2024/01/02 08:39:41;;;;;;;1.65;0.25;;;;;;;10.72;100.00;99327.75;5098310;27;96833;-27
2024/01/02 08:42:06;;;;;;;6.03;0.98;;;;;;;10.74;100.00;99327.63;5079106;27;99361;-27
2024/01/02 08:44:33;;;;;;;2.58;0.52;;;;;;;10.65;100.00;99321.16;5098067;27;97917;-27
2024/01/02 08:46:58;;;;;;;3.47;0.80;;;;;;;10.72;100.00;99332.31;5098356;27;96556;-27
2024/01/02 08:49:24;;;;;;;3.08;0.85;;;;;;;10.69;100.00;99329.88;5097981;27;96849;-27
2024/01/02 08:51:49;;;;;;;2.22;0.60;;;;;;;10.70;100.00;99340.59;5097214;27;97379;-27
2024/01/02 08:54:15;;;;;;;6.65;1.17;;;;;;;10.73;100.00;99337.59;5097762;27;97726;-35
2024/01/02 08:56:40;;;;;;;2.28;0.75;;;;;;;10.71;100.00;99319.78;5096400;27;96683;-28
2024/01/02 08:59:06;;;;;;;6.70;1.13;;;;;;;10.75;100.00;99332.91;5097551;27;96813;-27
2024/01/02 09:01:32;;;;;;;1.67;0.85;;;;;;;10.77;100.00;99330.06;5078872;27;96754;-27
2024/01/02 09:03:58;;;;;;;3.72;1.15;;;;;;;10.77;100.00;99324.63;5097846;27;97226;-27
2024/01/02 09:06:24;;;;;;;3.58;0.47;;;;;;;10.82;100.00;99322.38;5097514;27;96571;-27
2024/01/02 09:08:50;;;;;;;3.47;0.47;;;;;;;10.79;100.00;99311.81;5078965;27;96962;-27
2024/01/02 09:11:15;;;;;;;1.30;0.43;;;;;;;10.89;100.00;99325.41;5097646;27;97539;-27
2024/01/02 09:13:41;;;;;;;3.10;0.65;;;;;;;10.89;100.00;99307.31;5097448;27;97882;-27
2024/01/02 09:16:09;;;;;;;4.22;1.20;;;;;;;10.89;100.00;99306.47;5097449;27;96562;-27
2024/01/02 09:18:35;;;;;;;1.73;0.73;;;;;;;10.94;100.00;99305.09;5096840;27;97015;-28
2024/01/02 09:21:00;;;;;;;1.95;0.75;;;;;;;10.93;100.00;99303.34;5096977;27;98808;-28
2024/01/02 09:23:25;;;;;;;2.47;0.60;;;;;;;10.98;100.00;99300.25;5097281;27;97870;-27
2024/01/02 09:25:57;;;;;;;1.27;0.50;;;;;;;11.01;100.00;99300.84;5097240;27;96647;-27
2024/01/02 09:28:22;;;;;;;6.57;0.88;;;;;;;11.01;100.00;99299.94;5079179;27;96802;-27
2024/01/02 09:30:48;;;;;;;1.85;0.70;;;;;;;10.98;100.00;99298.38;5096909;27;99512;-28
2024/01/02 09:33:14;;;;;;;7.03;1.25;;;;;;;10.90;100.00;99286.53;5094542;27;99420;-28
2024/01/02 09:35:41;;;;;;;1.30;0.60;;;;;;;10.99;100.00;99297.41;5076347;27;97249;-31
2024/01/02 09:38:07;;;;;;;3.15;0.50;;;;;;;11.00;100.00;99300.97;5074891;27;97054;-29
2024/01/02 09:40:50;;;;;;;4.28;0.77;;;;;;;11.07;100.00;99309.41;5092456;27;99417;-34
2024/01/02 09:43:28;;;;;;;6.47;0.73;;;;;;;11.08;100.00;99305.69;5093065;27;99811;-30
2024/01/02 09:45:55;;;;;;;4.50;1.17;;;;;;;11.07;100.00;99302.13;5093178;27;97113;-28
2024/01/02 09:48:36;;;;;;;2.00;0.90;;;;;;;11.05;100.00;99291.41;5094417;27;97329;-28
2024/01/02 09:51:15;;;;;;;7.38;0.82;;;;;;;11.10;100.00;99301.00;5075332;27;101492;-30
2024/01/02 09:53:44;;;;;;;1.20;0.75;;;;;;;11.13;100.00;99306.16;5077699;27;100782;-27
2024/01/02 09:56:16;;;;;;;1.35;0.55;;;;;;;11.13;100.00;99308.84;5097268;27;96532;-27
2024/01/02 09:59:02;;;;;;;9.70;1.20;;;;;;;11.13;100.00;99298.00;5096349;27;96801;-27
2024/01/02 10:01:50;;;;;;;0.93;0.50;;;;;;;11.14;100.00;99295.19;5078211;27;98999;-27
2024/01/02 10:04:46;;;;;;;1.33;0.50;;;;;;;11.19;100.00;99283.94;5097110;27;97875;-26
2024/01/02 10:07:34;;;;;;;3.72;0.20;;;;;;;11.17;100.00;99284.06;5097172;27;96546;-27
2024/01/02 10:10:28;;;;;;;1.10;0.52;;;;;;;11.18;100.00;99279.53;5064480;27;96794;-27
2024/01/02 10:13:12;;;;;;;0.60;0.30;;;;;;;11.16;100.00;99297.75;5092353;27;97610;-26
2024/01/02 10:15:59;;;;;;;3.10;0.52;;;;;;;11.18;100.00;99285.78;5096721;27;97326;-27
2024/01/02 10:18:37;;;;;;;4.28;0.38;;;;;;;11.18;100.00;99290.34;5077096;27;96837;-28
2024/01/02 10:21:16;;;;;;;3.10;0.65;;;;;;;11.17;100.00;99272.38;5096833;27;96833;-27
2024/01/02 10:24:18;;;;;;;3.65;0.30;;;;;;;11.18;100.00;99268.69;5077575;27;100789;-26
2024/01/02 10:26:59;;;;;;;2.03;0.20;;;;;;;11.18;100.00;99265.97;5096232;27;97361;-27
2024/01/02 10:29:42;;;;;;;0.57;0.30;;;;;;;11.18;100.00;99258.69;5078109;27;96593;-27
2024/01/02 10:32:12;;;;;;;0.40;0.35;;;;;;;11.20;100.00;99255.81;5077260;27;96822;-27
2024/01/02 10:34:49;;;;;;;0.47;0.30;;;;;;;11.14;100.00;99245.53;5077437;27;101262;-27
2024/01/02 10:37:18;;;;;;;2.25;0.28;;;;;;;11.18;100.00;99237.00;5077926;27;101239;-27
2024/01/02 10:39:57;;;;;;;0.70;0.40;;;;;;;11.17;100.00;99229.84;5096230;27;96594;-28
2024/01/02 10:42:48;;;;;;;5.72;0.82;;;;;;;11.27;100.00;99241.59;5075462;27;97118;-32
2024/01/02 10:45:50;;;;;;;1.88;0.65;;;;;;;11.27;100.00;99240.72;5093250;27;97290;-28
2024/01/02 10:48:21;;;;;;;2.67;0.75;;;;;;;11.27;100.00;99229.88;5093732;27;97912;-32
2024/01/02 10:50:57;;;;;;;3.27;0.90;;;;;;;11.22;100.00;99210.47;5093875;27;97067;-29
2024/01/02 10:53:49;;;;;;;1.45;0.90;;;;;;;11.18;100.00;99198.22;5094115;27;97020;-27
2024/01/02 10:56:26;;;;;;;1.02;0.90;;;;;;;11.24;100.00;99209.31;5075403;27;99128;-27
2024/01/02 10:59:10;;;;;;;0.82;0.60;;;;;;;11.18;100.00;99200.94;5094999;27;97858;-26
2024/01/02 11:01:38;;;;;;;1.83;1.02;;;;;;;11.19;100.00;99203.47;5077497;27;96576;-27
2024/01/02 11:04:58;;;;;;;5.65;0.75;;;;;;;11.18;100.00;99200.94;5077862;27;96894;-27
2024/01/02 11:07:29;;;;;;;1.42;0.65;;;;;;;11.18;100.00;99184.66;5031813;28;98035;-27
2024/01/02 11:10:01;;;;;;;1.17;0.67;;;;;;;11.17;100.00;99183.78;5066180;27;101040;-27
2024/01/02 11:12:36;;;;;;;0.85;0.47;;;;;;;11.16;100.00;99173.09;5076789;27;96627;-27
2024/01/02 11:15:03;;;;;;;0.47;0.30;;;;;;;11.19;100.00;99175.53;5077364;27;96711;-27
2024/01/02 11:17:31;;;;;;;0.10;0.10;;;;;;;11.18;100.00;99162.97;5076943;27;100538;-27
2024/01/02 11:20:05;;;;;;;0.55;0.22;;;;;;;11.18;100.00;99177.38;5076868;27;100742;-27
2024/01/02 11:22:39;;;;;;;0.70;0.10;;;;;;;11.19;100.00;99165.53;5095802;27;96633;-27
2024/01/02 11:25:09;;;;;;;0.10;0.00;;;;;;;11.17;100.00;99156.69;5077244;27;96789;-26
2024/01/02 11:27:37;;;;;;;0.25;0.20;;;;;;;11.11;100.00;99142.81;5095411;27;98889;-27
2024/01/02 11:30:05;;;;;;;0.40;0.32;;;;;;;11.19;100.00;99157.41;5077119;27;101038;-27